createdAt,value
2017-03-06T00:01:00.770Z,6.57
2017-03-06T00:02:01.491Z,6.51
2017-03-06T00:03:02.208Z,6.51
2017-03-06T00:04:02.942Z,6.52
2017-03-06T00:05:03.690Z,6.52
2017-03-06T00:06:04.412Z,6.51
2017-03-06T00:07:05.114Z,6.56
2017-03-06T00:08:05.850Z,6.51
2017-03-06T00:09:06.567Z,6.51
2017-03-06T00:10:07.278Z,6.48
2017-03-06T00:11:08.015Z,6.51
2017-03-06T00:12:08.736Z,6.52
2017-03-06T00:13:09.463Z,6.49
2017-03-06T00:14:10.201Z,6.46
2017-03-06T00:15:10.930Z,6.52
2017-03-06T00:16:11.639Z,6.57
2017-03-06T00:17:12.378Z,6.54
2017-03-06T00:18:13.086Z,6.62
2017-03-06T00:19:13.824Z,6.54
2017-03-06T00:20:14.522Z,6.48
2017-03-06T00:21:15.243Z,6.56
2017-03-06T00:22:15.968Z,6.49
2017-03-06T00:23:16.699Z,6.49
2017-03-06T00:24:17.439Z,6.52
2017-03-06T00:25:18.155Z,6.49
2017-03-06T00:26:18.868Z,6.63
2017-03-06T00:27:19.599Z,6.63
2017-03-06T00:28:20.307Z,6.63
2017-03-06T00:29:21.042Z,6.54
2017-03-06T00:30:21.778Z,6.51
2017-03-06T00:31:22.506Z,6.48
2017-03-06T00:32:23.228Z,6.48
2017-03-06T00:33:24.012Z,6.51
2017-03-06T00:34:24.763Z,6.51
2017-03-06T00:35:25.483Z,6.57
2017-03-06T00:36:26.203Z,6.56
2017-03-06T00:37:26.986Z,6.56
2017-03-06T00:38:27.692Z,6.54
2017-03-06T00:39:28.427Z,6.54
2017-03-06T00:40:29.168Z,6.51
2017-03-06T00:41:29.919Z,6.63
2017-03-06T00:42:30.648Z,6.6
2017-03-06T00:43:31.372Z,6.62
2017-03-06T00:44:32.124Z,6.59
2017-03-06T00:45:32.862Z,6.51
2017-03-06T00:46:33.566Z,6.62
2017-03-06T00:47:34.307Z,6.63
2017-03-06T00:48:35.018Z,6.66
2017-03-06T00:49:35.763Z,6.67
2017-03-06T00:50:36.494Z,6.62
2017-03-06T00:51:37.215Z,6.62
2017-03-06T00:52:37.970Z,6.7
2017-03-06T00:53:38.693Z,6.69
2017-03-06T00:54:39.389Z,6.74
2017-03-06T00:55:40.129Z,6.69
2017-03-06T00:56:40.855Z,6.72
2017-03-06T00:57:41.562Z,6.67
2017-03-06T00:58:42.277Z,6.69
2017-03-06T00:59:43.000Z,6.81
2017-03-06T01:00:43.714Z,6.75
2017-03-06T01:01:44.432Z,6.75
2017-03-06T01:02:45.155Z,6.74
2017-03-06T01:03:45.868Z,6.72
2017-03-06T01:04:46.588Z,6.75
2017-03-06T01:05:47.297Z,6.74
2017-03-06T01:06:48.015Z,6.75
2017-03-06T01:07:48.727Z,6.74
2017-03-06T01:08:49.443Z,6.78
2017-03-06T01:09:50.149Z,6.79
2017-03-06T01:10:50.881Z,6.77
2017-03-06T01:11:51.597Z,6.74
2017-03-06T01:12:52.306Z,6.77
2017-03-06T01:13:53.021Z,6.66
2017-03-06T01:14:53.726Z,6.77
2017-03-06T01:15:54.451Z,6.69
2017-03-06T01:16:55.174Z,6.59
2017-03-06T01:17:55.880Z,6.63
2017-03-06T01:18:56.649Z,6.64
2017-03-06T01:19:57.353Z,6.62
2017-03-06T01:20:58.084Z,6.59
2017-03-06T01:21:58.795Z,6.62
2017-03-06T01:22:59.543Z,6.59
2017-03-06T01:24:00.277Z,6.69
2017-03-06T01:25:00.984Z,6.74
2017-03-06T01:26:01.732Z,6.75
2017-03-06T01:27:02.444Z,6.75
2017-03-06T01:28:03.169Z,6.77
2017-03-06T01:29:03.897Z,6.78
2017-03-06T01:30:04.636Z,6.74
2017-03-06T01:31:05.360Z,6.77
2017-03-06T01:32:06.134Z,6.79
2017-03-06T01:33:06.868Z,6.79
2017-03-06T01:34:07.600Z,6.75
2017-03-06T01:35:08.315Z,6.79
2017-03-06T01:36:09.030Z,6.79
2017-03-06T01:37:09.752Z,6.81
2017-03-06T01:38:10.470Z,6.78
2017-03-06T01:39:11.175Z,6.81
2017-03-06T01:40:11.889Z,6.82
2017-03-06T01:41:12.630Z,6.81
2017-03-06T01:42:13.340Z,6.79
2017-03-06T01:43:14.084Z,6.72
2017-03-06T01:44:14.829Z,6.75
2017-03-06T01:45:15.567Z,6.79
2017-03-06T01:46:16.286Z,6.74
2017-03-06T01:47:17.017Z,6.75
2017-03-06T01:48:17.750Z,6.69
2017-03-06T01:49:18.463Z,6.72
2017-03-06T01:50:19.193Z,6.72
2017-03-06T01:51:19.904Z,6.74
2017-03-06T01:52:20.627Z,6.75
2017-03-06T01:53:21.341Z,6.75
2017-03-06T01:54:22.063Z,6.82
2017-03-06T01:55:22.845Z,6.79
2017-03-06T01:56:23.530Z,6.81
2017-03-06T01:57:24.243Z,6.81
2017-03-06T01:58:24.984Z,6.82
2017-03-06T01:59:25.732Z,6.79
2017-03-06T02:00:26.451Z,6.79
2017-03-06T02:01:27.202Z,6.79
2017-03-06T02:02:27.920Z,6.75
2017-03-06T02:03:28.646Z,6.79
2017-03-06T02:04:29.372Z,6.77
2017-03-06T02:05:30.103Z,6.74
2017-03-06T02:06:30.826Z,6.79
2017-03-06T02:07:31.563Z,6.78
2017-03-06T02:08:32.303Z,6.79
2017-03-06T02:09:33.061Z,6.77
2017-03-06T02:10:33.772Z,6.78
2017-03-06T02:11:34.499Z,6.78
2017-03-06T02:12:35.205Z,6.75
2017-03-06T02:13:35.933Z,6.7
2017-03-06T02:14:36.659Z,6.75
2017-03-06T02:15:44.082Z,6.75
2017-03-06T02:16:44.825Z,6.62
2017-03-06T02:17:45.539Z,6.75
2017-03-06T02:18:46.257Z,6.69
2017-03-06T02:19:46.964Z,6.66
2017-03-06T02:20:47.671Z,6.6
2017-03-06T02:21:48.414Z,6.67
2017-03-06T02:22:49.128Z,6.69
2017-03-06T02:23:49.847Z,6.69
2017-03-06T02:24:50.596Z,6.7
2017-03-06T02:25:51.311Z,6.72
2017-03-06T02:26:52.070Z,6.69
2017-03-06T02:27:52.807Z,6.69
2017-03-06T02:28:53.531Z,6.67
2017-03-06T02:29:54.242Z,6.62
2017-03-06T02:30:54.950Z,6.62
2017-03-06T02:31:55.672Z,6.62
2017-03-06T02:32:56.412Z,6.64
2017-03-06T02:33:57.145Z,6.62
2017-03-06T02:34:57.878Z,6.54
2017-03-06T02:35:58.599Z,6.54
2017-03-06T02:36:59.304Z,6.49
2017-03-06T02:38:00.039Z,6.49
2017-03-06T02:39:00.769Z,6.56
2017-03-06T02:40:01.491Z,6.51
2017-03-06T02:41:02.212Z,6.46
2017-03-06T02:42:02.925Z,6.56
2017-03-06T02:43:03.636Z,6.56
2017-03-06T02:44:04.358Z,6.56
2017-03-06T02:45:05.081Z,6.52
2017-03-06T02:46:05.789Z,6.52
2017-03-06T02:47:06.533Z,6.57
2017-03-06T02:48:07.258Z,6.48
2017-03-06T02:49:07.989Z,6.51
2017-03-06T02:50:08.706Z,6.52
2017-03-06T02:51:09.409Z,6.49
2017-03-06T02:52:10.153Z,6.54
2017-03-06T02:53:10.857Z,6.49
2017-03-06T02:54:11.561Z,6.51
2017-03-06T02:55:12.280Z,6.45
2017-03-06T02:56:13.010Z,6.49
2017-03-06T02:57:13.747Z,6.57
2017-03-06T02:58:14.458Z,6.54
2017-03-06T02:59:15.163Z,6.49
2017-03-06T03:00:15.885Z,6.51
2017-03-06T03:01:16.597Z,6.56
2017-03-06T03:02:17.349Z,6.57
2017-03-06T03:03:18.077Z,6.54
2017-03-06T03:04:18.771Z,6.52
2017-03-06T03:05:19.489Z,6.41
2017-03-06T03:06:20.208Z,6.42
2017-03-06T03:07:20.905Z,6.31
2017-03-06T03:08:21.648Z,6.3
2017-03-06T03:09:22.361Z,6.44
2017-03-06T03:10:23.069Z,6.38
2017-03-06T03:11:23.808Z,6.36
2017-03-06T03:12:24.557Z,6.39
2017-03-06T03:13:25.324Z,6.46
2017-03-06T03:14:26.019Z,6.41
2017-03-06T03:15:26.751Z,6.39
2017-03-06T03:16:27.457Z,6.41
2017-03-06T03:17:28.185Z,6.45
2017-03-06T03:18:28.901Z,6.35
2017-03-06T03:19:29.645Z,6.35
2017-03-06T03:20:30.347Z,6.27
2017-03-06T03:21:31.072Z,6.41
2017-03-06T03:22:31.823Z,6.41
2017-03-06T03:23:32.550Z,6.41
2017-03-06T03:24:33.289Z,6.3
2017-03-06T03:25:34.001Z,6.24
2017-03-06T03:26:34.707Z,6.22
2017-03-06T03:27:35.416Z,6.26
2017-03-06T03:28:36.146Z,6.28
2017-03-06T03:29:36.889Z,6.28
2017-03-06T03:30:37.614Z,6.3
2017-03-06T03:31:38.334Z,6.33
2017-03-06T03:32:39.084Z,6.33
2017-03-06T03:33:39.829Z,6.39
2017-03-06T03:34:40.543Z,6.41
2017-03-06T03:35:41.249Z,6.42
2017-03-06T03:36:41.984Z,6.35
2017-03-06T03:37:42.711Z,6.39
2017-03-06T03:38:43.422Z,6.42
2017-03-06T03:39:44.170Z,6.39
2017-03-06T03:40:44.884Z,6.26
2017-03-06T03:41:45.620Z,6.45
2017-03-06T03:42:46.340Z,6.44
2017-03-06T03:43:47.063Z,6.38
2017-03-06T03:44:47.783Z,6.54
2017-03-06T03:45:48.503Z,6.56
2017-03-06T03:46:49.220Z,6.46
2017-03-06T03:47:49.930Z,6.51
2017-03-06T03:48:50.643Z,6.52
2017-03-06T03:49:51.363Z,6.51
2017-03-06T03:50:52.070Z,6.54
2017-03-06T03:51:52.792Z,6.41
2017-03-06T03:52:53.521Z,6.45
2017-03-06T03:53:54.229Z,6.27
2017-03-06T03:54:54.954Z,6.3
2017-03-06T03:55:55.688Z,6.3
2017-03-06T03:56:56.407Z,6.26
2017-03-06T03:57:57.138Z,6.19
2017-03-06T03:58:57.874Z,6.2
2017-03-06T03:59:58.603Z,6.2
2017-03-06T04:00:59.337Z,6.24
2017-03-06T04:02:00.056Z,6.11
2017-03-06T04:03:00.775Z,6.17
2017-03-06T04:04:01.518Z,6.24
2017-03-06T04:05:02.250Z,6.26
2017-03-06T04:06:02.956Z,6.28
2017-03-06T04:07:03.704Z,6.19
2017-03-06T04:08:04.419Z,6.16
2017-03-06T04:09:05.136Z,6.22
2017-03-06T04:10:05.883Z,6.2
2017-03-06T04:11:06.594Z,6.31
2017-03-06T04:12:07.311Z,6.27
2017-03-06T04:13:08.034Z,6.27
2017-03-06T04:14:08.756Z,6.3
2017-03-06T04:15:09.464Z,6.22
2017-03-06T04:16:10.188Z,6.26
2017-03-06T04:17:10.912Z,6.26
2017-03-06T04:18:11.627Z,6.26
2017-03-06T04:19:12.351Z,6.26
2017-03-06T04:20:13.077Z,6.33
2017-03-06T04:21:13.793Z,6.35
2017-03-06T04:22:14.555Z,6.26
2017-03-06T04:23:15.271Z,6.24
2017-03-06T04:24:15.986Z,6.17
2017-03-06T04:25:16.718Z,6.22
2017-03-06T04:26:17.453Z,6.19
2017-03-06T04:27:18.165Z,6.19
2017-03-06T04:28:18.921Z,6.27
2017-03-06T04:29:19.644Z,6.17
2017-03-06T04:30:20.356Z,6.22
2017-03-06T04:31:21.082Z,6.2
2017-03-06T04:32:21.793Z,6.16
2017-03-06T04:33:22.520Z,6.19
2017-03-06T04:34:23.243Z,6.2
2017-03-06T04:35:23.956Z,6.22
2017-03-06T04:36:24.674Z,6.24
2017-03-06T04:37:25.401Z,6.26
2017-03-06T04:38:26.107Z,6.26
2017-03-06T04:39:26.839Z,6.36
2017-03-06T04:40:27.563Z,6.28
2017-03-06T04:41:28.274Z,6.31
2017-03-06T04:42:28.977Z,6.3
2017-03-06T04:43:29.699Z,6.27
2017-03-06T04:44:30.426Z,6.31
2017-03-06T04:45:31.151Z,6.24
2017-03-06T04:46:31.865Z,6.27
2017-03-06T04:47:32.589Z,6.44
2017-03-06T04:48:33.339Z,6.38
2017-03-06T04:49:34.068Z,6.41
2017-03-06T04:50:34.769Z,6.44
2017-03-06T04:51:35.526Z,6.41
2017-03-06T04:52:36.249Z,6.3
2017-03-06T04:53:36.983Z,6.3
2017-03-06T04:54:37.713Z,6.28
2017-03-06T04:55:38.430Z,6.24
2017-03-06T04:56:39.161Z,6.28
2017-03-06T04:57:39.881Z,6.28
2017-03-06T04:58:40.632Z,6.27
2017-03-06T04:59:41.359Z,6.31
2017-03-06T05:00:42.089Z,6.3
2017-03-06T05:01:42.839Z,6.27
2017-03-06T05:02:43.572Z,6.3
2017-03-06T05:03:44.318Z,6.27
2017-03-06T05:04:45.040Z,6.33
2017-03-06T05:05:45.770Z,6.27
2017-03-06T05:06:46.508Z,6.3
2017-03-06T05:07:47.236Z,6.28
2017-03-06T05:08:47.964Z,6.28
2017-03-06T05:09:48.657Z,6.39
2017-03-06T05:10:49.382Z,6.41
2017-03-06T05:11:50.146Z,6.42
2017-03-06T05:12:50.870Z,6.46
2017-03-06T05:13:51.586Z,6.46
2017-03-06T05:14:52.326Z,6.49
2017-03-06T05:15:53.062Z,6.48
2017-03-06T05:16:53.790Z,6.45
2017-03-06T05:17:54.495Z,6.49
2017-03-06T05:18:55.212Z,6.46
2017-03-06T05:19:55.928Z,6.56
2017-03-06T05:20:56.634Z,6.56
2017-03-06T05:21:57.345Z,6.46
2017-03-06T05:22:58.065Z,6.51
2017-03-06T05:23:58.773Z,6.52
2017-03-06T05:24:59.502Z,6.49
2017-03-06T05:26:00.228Z,6.41
2017-03-06T05:27:00.992Z,6.44
2017-03-06T05:28:01.713Z,6.33
2017-03-06T05:29:02.444Z,6.27
2017-03-06T05:30:03.173Z,6.33
2017-03-06T05:31:03.932Z,6.27
2017-03-06T05:32:04.668Z,6.36
2017-03-06T05:33:05.379Z,6.26
2017-03-06T05:34:06.101Z,6.3
2017-03-06T05:35:06.839Z,6.31
2017-03-06T05:36:07.561Z,6.26
2017-03-06T05:37:08.279Z,6.35
2017-03-06T05:38:08.997Z,6.33
2017-03-06T05:39:09.723Z,6.39
2017-03-06T05:40:10.477Z,6.45
2017-03-06T05:41:11.201Z,6.42
2017-03-06T05:42:11.939Z,6.38
2017-03-06T05:43:12.648Z,6.44
2017-03-06T05:44:13.379Z,6.41
2017-03-06T05:45:14.163Z,6.27
2017-03-06T05:46:14.894Z,6.28
2017-03-06T05:47:15.619Z,6.3
2017-03-06T05:48:16.320Z,6.27
2017-03-06T05:49:17.032Z,6.38
2017-03-06T05:50:17.786Z,6.39
2017-03-06T05:51:18.524Z,6.31
2017-03-06T05:52:19.240Z,6.31
2017-03-06T05:53:19.977Z,6.31
2017-03-06T05:54:20.674Z,6.38
2017-03-06T05:55:21.428Z,6.3
2017-03-06T05:56:22.139Z,6.38
2017-03-06T05:57:22.861Z,6.36
2017-03-06T05:58:23.584Z,6.3
2017-03-06T05:59:24.298Z,6.27
2017-03-06T06:00:25.001Z,6.2
2017-03-06T06:01:25.764Z,6.22
2017-03-06T06:02:26.494Z,6.22
2017-03-06T06:03:27.197Z,6.27
2017-03-06T06:04:27.909Z,6.31
2017-03-06T06:05:28.632Z,6.3
2017-03-06T06:06:29.357Z,6.26
2017-03-06T06:07:30.065Z,6.27
2017-03-06T06:08:30.805Z,6.27
2017-03-06T06:09:31.550Z,6.27
2017-03-06T06:10:32.267Z,6.3
2017-03-06T06:11:32.997Z,6.33
2017-03-06T06:12:33.695Z,6.39
2017-03-06T06:13:34.420Z,6.39
2017-03-06T06:14:35.133Z,6.39
2017-03-06T06:15:35.869Z,6.45
2017-03-06T06:16:36.585Z,6.28
2017-03-06T06:17:37.372Z,6.26
2017-03-06T06:18:38.097Z,6.17
2017-03-06T06:19:38.808Z,6.19
2017-03-06T06:20:39.518Z,6.07
2017-03-06T06:21:40.244Z,6.07
2017-03-06T06:22:41.008Z,6.11
2017-03-06T06:23:41.780Z,6.05
2017-03-06T06:24:42.499Z,6.16
2017-03-06T06:25:43.254Z,6.08
2017-03-06T06:26:43.994Z,5.99
2017-03-06T06:27:44.731Z,6.02
2017-03-06T06:28:45.441Z,6.02
2017-03-06T06:29:46.184Z,6.02
2017-03-06T06:30:46.889Z,6.07
2017-03-06T06:31:47.617Z,6.02
2017-03-06T06:32:48.358Z,6.02
2017-03-06T06:33:49.112Z,6.05
2017-03-06T06:34:49.829Z,6.04
2017-03-06T06:35:50.596Z,6.02
2017-03-06T06:36:51.320Z,6.02
2017-03-06T06:37:52.069Z,6.05
2017-03-06T06:38:52.807Z,5.97
2017-03-06T06:39:53.550Z,6.05
2017-03-06T06:40:54.283Z,5.98
2017-03-06T06:41:55.008Z,6.01
2017-03-06T06:42:55.763Z,6.05
2017-03-06T06:43:56.511Z,6.02
2017-03-06T06:44:57.260Z,6.09
2017-03-06T06:45:57.983Z,6.07
2017-03-06T06:46:58.721Z,6.08
2017-03-06T06:47:59.465Z,6.08
2017-03-06T06:49:00.195Z,6.19
2017-03-06T06:50:00.920Z,6.14
2017-03-06T06:51:01.632Z,6.19
2017-03-06T06:52:02.387Z,6.2
2017-03-06T06:53:03.163Z,6.27
2017-03-06T06:54:03.912Z,6.19
2017-03-06T06:55:04.631Z,6.24
2017-03-06T06:56:05.344Z,6.11
2017-03-06T06:57:06.072Z,6.14
2017-03-06T06:58:06.790Z,6.02
2017-03-06T06:59:07.518Z,6.04
2017-03-06T07:00:08.263Z,6.09
2017-03-06T07:01:09.029Z,6.12
2017-03-06T07:02:09.774Z,6.11
2017-03-06T07:03:10.514Z,6.05
2017-03-06T07:04:11.250Z,6.11
2017-03-06T07:05:11.985Z,6.05
2017-03-06T07:06:12.772Z,6.16
2017-03-06T07:07:13.523Z,6.2
2017-03-06T07:08:14.266Z,6.19
2017-03-06T07:09:15.035Z,6.22
2017-03-06T07:10:15.754Z,6.26
2017-03-06T07:11:16.478Z,6.27
2017-03-06T07:12:17.196Z,6.31
2017-03-06T07:13:17.941Z,6.3
2017-03-06T07:14:18.722Z,6.26
2017-03-06T07:15:19.458Z,6.28
2017-03-06T07:16:20.253Z,6.36
2017-03-06T07:17:21.016Z,6.42
2017-03-06T07:18:21.729Z,6.33
2017-03-06T07:19:22.521Z,6.27
2017-03-06T07:20:23.334Z,6.33
2017-03-06T07:21:24.319Z,6.38
2017-03-06T07:22:25.014Z,6.33
2017-03-06T07:23:25.809Z,6.42
2017-03-06T07:24:26.580Z,6.42
2017-03-06T07:25:27.326Z,6.42
2017-03-06T07:26:28.084Z,6.39
2017-03-06T07:27:28.839Z,6.42
2017-03-06T07:28:29.579Z,6.39
2017-03-06T07:29:30.325Z,6.3
2017-03-06T07:30:31.052Z,6.31
2017-03-06T07:31:31.875Z,6.3
2017-03-06T07:32:32.617Z,6.35
2017-03-06T07:33:33.363Z,6.31
2017-03-06T07:34:34.110Z,6.33
2017-03-06T07:35:34.896Z,6.26
2017-03-06T07:36:35.743Z,6.3
2017-03-06T07:37:36.517Z,6.28
2017-03-06T07:38:37.243Z,6.36
2017-03-06T07:39:38.000Z,6.38
2017-03-06T07:40:38.739Z,6.46
2017-03-06T07:41:39.466Z,6.49
2017-03-06T07:42:40.247Z,6.49
2017-03-06T07:43:40.995Z,6.56
2017-03-06T07:44:41.716Z,6.56
2017-03-06T07:45:42.465Z,6.63
2017-03-06T07:46:43.258Z,6.62
2017-03-06T07:47:43.990Z,6.62
2017-03-06T07:48:44.733Z,6.64
2017-03-06T07:49:45.498Z,6.62
2017-03-06T07:50:46.232Z,6.59
2017-03-06T07:51:46.967Z,6.69
2017-03-06T07:52:47.692Z,6.75
2017-03-06T07:53:48.427Z,6.67
2017-03-06T07:54:49.153Z,6.67
2017-03-06T07:55:49.900Z,6.67
2017-03-06T07:56:50.633Z,6.64
2017-03-06T07:57:51.377Z,6.77
2017-03-06T07:58:52.087Z,6.78
2017-03-06T07:59:52.834Z,6.75
2017-03-06T08:00:53.551Z,6.85
2017-03-06T08:01:54.295Z,6.79
2017-03-06T08:02:55.025Z,6.79
2017-03-06T08:03:55.754Z,6.75
2017-03-06T08:04:56.483Z,6.78
2017-03-06T08:05:57.197Z,6.84
2017-03-06T08:06:57.933Z,6.7
2017-03-06T08:07:58.646Z,6.72
2017-03-06T08:08:59.378Z,6.77
2017-03-06T08:10:00.113Z,6.78
2017-03-06T08:11:01.101Z,6.89
2017-03-06T08:12:02.024Z,6.99
2017-03-06T08:13:02.813Z,6.96
2017-03-06T08:14:03.561Z,6.95
2017-03-06T08:15:04.283Z,6.95
2017-03-06T08:16:05.021Z,7
2017-03-06T08:17:05.771Z,7
2017-03-06T08:18:06.521Z,6.93
2017-03-06T08:19:07.251Z,7.06
2017-03-06T08:20:07.971Z,7.11
2017-03-06T08:21:08.697Z,7.03
2017-03-06T08:22:09.423Z,7.18
2017-03-06T08:23:10.172Z,7.18
2017-03-06T08:24:10.909Z,7.2
2017-03-06T08:25:11.633Z,7.1
2017-03-06T08:26:12.374Z,7.13
2017-03-06T08:27:13.118Z,7.06
2017-03-06T08:28:13.848Z,7.11
2017-03-06T08:29:14.577Z,7.1
2017-03-06T08:30:15.303Z,7.17
2017-03-06T08:31:16.079Z,7.23
2017-03-06T08:32:16.804Z,7.21
2017-03-06T08:33:17.552Z,7.14
2017-03-06T08:34:18.401Z,7.21
2017-03-06T08:35:19.446Z,7.17
2017-03-06T08:36:20.340Z,7.2
2017-03-06T08:37:21.069Z,7.17
2017-03-06T08:38:21.945Z,7.29
2017-03-06T08:39:22.660Z,7.31
2017-03-06T08:40:23.423Z,7.2
2017-03-06T08:41:24.150Z,7.17
2017-03-06T08:42:24.889Z,7.15
2017-03-06T08:43:25.625Z,7.32
2017-03-06T08:44:26.355Z,7.36
2017-03-06T08:45:27.316Z,7.29
2017-03-06T08:46:28.148Z,7.39
2017-03-06T08:47:28.891Z,7.33
2017-03-06T08:48:29.643Z,7.35
2017-03-06T08:49:30.386Z,7.24
2017-03-06T08:50:31.172Z,7.29
2017-03-06T08:51:31.918Z,7.36
2017-03-06T08:52:32.670Z,7.32
2017-03-06T08:53:33.455Z,7.38
2017-03-06T08:54:34.191Z,7.18
2017-03-06T08:55:34.930Z,7.2
2017-03-06T08:56:35.658Z,7.2
2017-03-06T08:57:36.391Z,7.21
2017-03-06T08:58:37.112Z,7.18
2017-03-06T08:59:39.069Z,7.2
2017-03-06T09:00:39.790Z,7.1
2017-03-06T09:01:40.513Z,7.2
2017-03-06T09:02:41.233Z,7.31
2017-03-06T09:03:41.946Z,7.25
2017-03-06T09:04:42.687Z,7.32
2017-03-06T09:05:43.426Z,7.33
2017-03-06T09:06:44.135Z,7.28
2017-03-06T09:07:44.870Z,7.25
2017-03-06T09:08:45.593Z,7.17
2017-03-06T09:09:46.328Z,7.2
2017-03-06T09:10:47.072Z,7.07
2017-03-06T09:11:47.788Z,7.13
2017-03-06T09:12:48.510Z,7.17
2017-03-06T09:13:49.234Z,7.11
2017-03-06T09:14:49.976Z,7.17
2017-03-06T09:15:50.766Z,7.03
2017-03-06T09:16:51.545Z,7.14
2017-03-06T09:17:52.268Z,7.18
2017-03-06T09:18:52.981Z,7.24
2017-03-06T09:19:53.726Z,7.28
2017-03-06T09:20:54.460Z,7.23
2017-03-06T09:21:55.231Z,7.31
2017-03-06T09:22:55.996Z,7.24
2017-03-06T09:23:56.747Z,7.36
2017-03-06T09:24:57.488Z,7.42
2017-03-06T09:25:58.206Z,7.4
2017-03-06T09:26:59.072Z,7.54
2017-03-06T09:27:59.788Z,7.54
2017-03-06T09:29:00.525Z,7.66
2017-03-06T09:30:01.260Z,7.67
2017-03-06T09:31:02.079Z,7.6
2017-03-06T09:32:02.805Z,7.58
2017-03-06T09:33:03.565Z,7.72
2017-03-06T09:34:04.289Z,7.6
2017-03-06T09:35:05.020Z,7.7
2017-03-06T09:36:05.740Z,7.61
2017-03-06T09:37:06.490Z,7.66
2017-03-06T09:38:07.214Z,7.57
2017-03-06T09:39:07.947Z,7.66
2017-03-06T09:40:08.688Z,7.77
2017-03-06T09:41:09.451Z,7.75
2017-03-06T09:42:10.190Z,7.72
2017-03-06T09:43:10.959Z,7.88
2017-03-06T09:44:11.682Z,7.87
2017-03-06T09:45:12.484Z,7.83
2017-03-06T09:46:13.174Z,7.95
2017-03-06T09:47:13.920Z,7.83
2017-03-06T09:48:14.636Z,7.97
2017-03-06T09:49:15.387Z,7.93
2017-03-06T09:50:16.125Z,7.85
2017-03-06T09:51:16.866Z,7.75
2017-03-06T09:52:17.611Z,7.73
2017-03-06T09:53:18.330Z,7.9
2017-03-06T09:54:19.065Z,7.93
2017-03-06T09:55:19.772Z,8.09
2017-03-06T09:56:20.589Z,8.03
2017-03-06T09:57:21.343Z,7.98
2017-03-06T09:58:22.135Z,8.09
2017-03-06T09:59:22.893Z,8.31
2017-03-06T10:00:23.628Z,8.23
2017-03-06T10:01:24.372Z,8.26
2017-03-06T10:02:25.085Z,8.3
2017-03-06T10:03:25.801Z,8.3
2017-03-06T10:04:26.588Z,8.36
2017-03-06T10:05:27.324Z,8.34
2017-03-06T10:06:28.026Z,8.44
2017-03-06T10:07:28.750Z,8.31
2017-03-06T10:08:29.493Z,8.26
2017-03-06T10:09:30.204Z,8.31
2017-03-06T10:10:30.959Z,8.3
2017-03-06T10:11:31.934Z,8.31
2017-03-06T10:12:32.508Z,8.24
2017-03-06T10:13:33.228Z,8.1
2017-03-06T10:14:34.442Z,8.1
2017-03-06T10:15:35.199Z,8.06
2017-03-06T10:16:35.948Z,8.03
2017-03-06T10:17:36.675Z,7.98
2017-03-06T10:18:37.403Z,8.08
2017-03-06T10:19:38.182Z,8.05
2017-03-06T10:20:38.909Z,7.97
2017-03-06T10:21:39.690Z,7.91
2017-03-06T10:22:40.407Z,8.08
2017-03-06T10:23:41.204Z,8.09
2017-03-06T10:24:41.938Z,8.03
2017-03-06T10:25:42.731Z,7.94
2017-03-06T10:26:43.459Z,7.93
2017-03-06T10:27:44.214Z,7.75
2017-03-06T10:28:44.934Z,7.66
2017-03-06T10:29:45.669Z,7.69
2017-03-06T10:30:46.421Z,7.7
2017-03-06T10:31:47.185Z,7.9
2017-03-06T10:32:47.940Z,7.98
2017-03-06T10:33:48.694Z,8.01
2017-03-06T10:34:49.466Z,7.93
2017-03-06T10:35:50.222Z,7.72
2017-03-06T10:36:50.992Z,7.73
2017-03-06T10:37:51.718Z,7.76
2017-03-06T10:38:52.443Z,7.66
2017-03-06T10:39:53.214Z,7.6
2017-03-06T10:40:53.959Z,7.58
2017-03-06T10:41:54.684Z,7.63
2017-03-06T10:42:55.396Z,7.79
2017-03-06T10:43:56.132Z,7.73
2017-03-06T10:44:56.887Z,7.77
2017-03-06T10:45:57.749Z,7.76
2017-03-06T10:46:58.485Z,7.98
2017-03-06T10:47:59.218Z,8.12
2017-03-06T10:48:59.949Z,8.15
2017-03-06T10:50:00.678Z,8.06
2017-03-06T10:51:01.421Z,8.05
2017-03-06T10:52:02.215Z,8.19
2017-03-06T10:53:02.966Z,8.18
2017-03-06T10:54:03.698Z,8.27
2017-03-06T10:55:04.441Z,8.33
2017-03-06T10:56:05.171Z,8.27
2017-03-06T10:57:05.959Z,8.13
2017-03-06T10:58:06.694Z,8.05
2017-03-06T10:59:07.420Z,8.01
2017-03-06T11:00:08.152Z,7.91
2017-03-06T11:01:08.943Z,7.97
2017-03-06T11:02:09.820Z,8.06
2017-03-06T11:03:10.588Z,8.2
2017-03-06T11:04:11.334Z,8.27
2017-03-06T11:05:12.065Z,8.26
2017-03-06T11:06:12.811Z,8.24
2017-03-06T11:07:13.539Z,8.26
2017-03-06T11:08:14.303Z,8.36
2017-03-06T11:09:15.066Z,8.37
2017-03-06T11:10:15.802Z,8.48
2017-03-06T11:11:16.536Z,8.45
2017-03-06T11:12:17.264Z,8.37
2017-03-06T11:13:18.019Z,8.36
2017-03-06T11:14:18.765Z,8.41
2017-03-06T11:15:19.490Z,8.49
2017-03-06T11:16:20.199Z,8.46
2017-03-06T11:17:20.932Z,8.46
2017-03-06T11:18:21.650Z,8.46
2017-03-06T11:19:22.397Z,8.48
2017-03-06T11:20:23.134Z,8.42
2017-03-06T11:21:23.871Z,8.48
2017-03-06T11:22:24.634Z,8.36
2017-03-06T11:23:25.362Z,8.42
2017-03-06T11:24:26.083Z,8.42
2017-03-06T11:25:26.799Z,8.44
2017-03-06T11:26:27.550Z,8.45
2017-03-06T11:27:28.301Z,8.33
2017-03-06T11:28:29.019Z,8.51
2017-03-06T11:29:29.761Z,8.46
2017-03-06T11:30:30.511Z,8.44
2017-03-06T11:31:31.215Z,8.51
2017-03-06T11:32:31.951Z,8.38
2017-03-06T11:33:32.674Z,8.28
2017-03-06T11:34:33.398Z,8.33
2017-03-06T11:35:34.115Z,8.33
2017-03-06T11:36:34.828Z,8.33
2017-03-06T11:37:35.582Z,8.26
2017-03-06T11:38:36.307Z,8.3
2017-03-06T11:39:37.013Z,8.44
2017-03-06T11:40:37.733Z,8.42
2017-03-06T11:41:38.489Z,8.48
2017-03-06T11:42:39.214Z,8.45
2017-03-06T11:43:39.939Z,8.38
2017-03-06T11:44:40.678Z,8.48
2017-03-06T11:45:41.422Z,8.48
2017-03-06T11:46:42.230Z,8.46
2017-03-06T11:47:42.966Z,8.36
2017-03-06T11:48:44.112Z,8.37
2017-03-06T11:49:44.827Z,8.38
2017-03-06T11:50:45.581Z,8.37
2017-03-06T11:51:46.395Z,8.49
2017-03-06T11:52:47.186Z,8.48
2017-03-06T11:53:47.926Z,8.55
2017-03-06T11:54:48.681Z,8.64
2017-03-06T11:55:49.451Z,8.63
2017-03-06T11:56:50.208Z,8.63
2017-03-06T11:57:50.937Z,8.69
2017-03-06T11:58:51.728Z,8.61
2017-03-06T11:59:52.458Z,8.51
2017-03-06T12:00:53.206Z,8.51
2017-03-06T12:01:53.939Z,8.37
2017-03-06T12:02:54.706Z,8.41
2017-03-06T12:03:55.464Z,8.31
2017-03-06T12:04:56.204Z,8.26
2017-03-06T12:05:57.032Z,8.41
2017-03-06T12:06:57.739Z,8.37
2017-03-06T12:07:58.492Z,8.42
2017-03-06T12:08:59.247Z,8.51
2017-03-06T12:09:59.971Z,8.48
2017-03-06T12:11:00.680Z,8.37
2017-03-06T12:12:01.435Z,8.27
2017-03-06T12:13:02.311Z,8.27
2017-03-06T12:14:03.042Z,8.28
2017-03-06T12:15:03.782Z,8.49
2017-03-06T12:16:04.509Z,8.53
2017-03-06T12:17:05.236Z,8.48
2017-03-06T12:18:05.979Z,8.42
2017-03-06T12:19:06.715Z,8.46
2017-03-06T12:20:07.502Z,8.48
2017-03-06T12:21:08.271Z,8.48
2017-03-06T12:22:09.021Z,8.46
2017-03-06T12:23:09.768Z,8.51
2017-03-06T12:24:10.488Z,8.36
2017-03-06T12:25:11.254Z,8.49
2017-03-06T12:26:11.990Z,8.46
2017-03-06T12:27:12.750Z,8.58
2017-03-06T12:28:13.467Z,8.55
2017-03-06T12:29:14.213Z,8.6
2017-03-06T12:30:14.953Z,8.6
2017-03-06T12:31:15.762Z,8.61
2017-03-06T12:32:16.480Z,8.56
2017-03-06T12:33:17.226Z,8.51
2017-03-06T12:34:17.958Z,8.55
2017-03-06T12:35:18.800Z,8.58
2017-03-06T12:36:19.495Z,8.56
2017-03-06T12:37:20.247Z,8.58
2017-03-06T12:38:20.990Z,8.46
2017-03-06T12:39:21.713Z,8.45
2017-03-06T12:40:22.427Z,8.49
2017-03-06T12:41:23.143Z,8.31
2017-03-06T12:42:23.888Z,8.36
2017-03-06T12:43:24.606Z,8.36
2017-03-06T12:44:25.348Z,8.31
2017-03-06T12:45:26.078Z,8.31
2017-03-06T12:46:26.842Z,8.3
2017-03-06T12:47:27.546Z,8.24
2017-03-06T12:48:28.267Z,8.23
2017-03-06T12:49:28.982Z,8.16
2017-03-06T12:50:29.696Z,8.08
2017-03-06T12:51:30.443Z,7.91
2017-03-06T12:52:31.191Z,7.93
2017-03-06T12:53:31.901Z,8
2017-03-06T12:54:32.640Z,8
2017-03-06T12:55:33.396Z,7.97
2017-03-06T12:56:34.137Z,7.9
2017-03-06T12:57:34.893Z,7.93
2017-03-06T12:58:35.636Z,7.94
2017-03-06T12:59:36.381Z,7.94
2017-03-06T13:00:37.118Z,7.95
2017-03-06T13:01:37.862Z,7.93
2017-03-06T13:02:38.577Z,7.93
2017-03-06T13:03:39.315Z,7.85
2017-03-06T13:04:40.053Z,7.8
2017-03-06T13:05:40.786Z,7.83
2017-03-06T13:06:41.517Z,7.8
2017-03-06T13:07:42.264Z,7.72
2017-03-06T13:08:43.020Z,7.94
2017-03-06T13:09:43.748Z,7.76
2017-03-06T13:10:44.487Z,7.7
2017-03-06T13:11:45.225Z,7.66
2017-03-06T13:12:45.975Z,7.76
2017-03-06T13:13:46.820Z,7.76
2017-03-06T13:14:47.570Z,7.8
2017-03-06T13:15:48.287Z,7.7
2017-03-06T13:16:49.091Z,7.75
2017-03-06T13:17:49.840Z,7.67
2017-03-06T13:18:50.611Z,7.73
2017-03-06T13:19:51.385Z,7.76
2017-03-06T13:20:52.096Z,7.7
2017-03-06T13:21:52.815Z,7.72
2017-03-06T13:22:53.557Z,7.63
2017-03-06T13:23:54.278Z,7.8
2017-03-06T13:24:55.014Z,7.75
2017-03-06T13:25:55.755Z,7.67
2017-03-06T13:26:56.480Z,7.67
2017-03-06T13:27:57.199Z,7.66
2017-03-06T13:28:57.923Z,7.69
2017-03-06T13:29:58.661Z,7.5
2017-03-06T13:30:59.423Z,7.45
2017-03-06T13:32:00.166Z,7.45